TNCM/SXM METAR and TAF weather

Enter ICAO airport designator
Station Type Date Time Source
TNCM METAR 2022/12/10 02:00 UTC NOAA

TNCM 100200Z VRB02KT 9999 FEW018 24/20 Q1014


Station Type Date Time Source
TNCM Decoded METAR 2022/12/10 02:00 UTC NOAA

Juliana Airport, Saint Maarten, Netherlands Antilles (TNCM) 18-03N 063-07W 9M
Dec 09, 2022 - 09:00 PM EST / 2022.12.10 0200 UTC
Wind: Variable at 2 MPH (2 KT):0
Visibility: greater than 7 mile(s):0
Sky conditions: mostly clear
Temperature: 75 F (24 C)
Dew Point: 68 F (20 C)
Relative Humidity: 78%
Pressure (altimeter): 29.94 in. Hg (1014 hPa)
ob: TNCM 100200Z VRB02KT 9999 FEW018 24/20 Q1014
cycle: 2

Station Type Date Time Source
TNCM TAF 2022/12/09 18:06 UTC NOAA

TAF TNCM 091600Z 0918/1018 01005KT 9999 SCT018

Example: see airport list